sensor_id;sensor_type;location;lat;lon;timestamp;pressure;altitude;pressure_sealevel;temperature;humidity
36748;BME280;22716;51.556;5.080;2023-03-15T00:00:10;100501.84;;;3.54;100.00
36748;BME280;22716;51.556;5.080;2023-03-15T00:02:39;100491.50;;;3.55;100.00
36748;BME280;22716;51.556;5.080;2023-03-15T00:05:09;100500.16;;;3.57;100.00
36748;BME280;22716;51.556;5.080;2023-03-15T00:07:42;100496.69;;;3.57;100.00
36748;BME280;22716;51.556;5.080;2023-03-15T00:10:11;100507.06;;;3.57;100.00
36748;BME280;22716;51.556;5.080;2023-03-15T00:12:40;100507.03;;;3.54;100.00
36748;BME280;22716;51.556;5.080;2023-03-15T00:15:12;100508.78;;;3.56;100.00
36748;BME280;22716;51.556;5.080;2023-03-15T00:17:41;100508.84;;;3.62;100.00
36748;BME280;22716;51.556;5.080;2023-03-15T00:20:11;100509.69;;;3.61;100.00
36748;BME280;22716;51.556;5.080;2023-03-15T00:22:42;100507.09;;;3.60;100.00
36748;BME280;22716;51.556;5.080;2023-03-15T00:25:11;100518.34;;;3.60;100.00
36748;BME280;22716;51.556;5.080;2023-03-15T00:27:40;100511.44;;;3.62;100.00
36748;BME280;22716;51.556;5.080;2023-03-15T00:30:10;100521.81;;;3.62;100.00
36748;BME280;22716;51.556;5.080;2023-03-15T00:32:39;100519.22;;;3.62;100.00
36748;BME280;22716;51.556;5.080;2023-03-15T00:35:10;100525.28;;;3.63;100.00
36748;BME280;22716;51.556;5.080;2023-03-15T00:37:41;100518.38;;;3.65;100.00
36748;BME280;22716;51.556;5.080;2023-03-15T00:40:11;100522.75;;;3.70;100.00
36748;BME280;22716;51.556;5.080;2023-03-15T00:42:40;100526.22;;;3.71;100.00
36748;BME280;22716;51.556;5.080;2023-03-15T00:45:15;100524.47;;;3.68;100.00
36748;BME280;22716;51.556;5.080;2023-03-15T00:47:46;100516.69;;;3.68;100.00
36748;BME280;22716;51.556;5.080;2023-03-15T00:50:16;100528.84;;;3.72;100.00
36748;BME280;22716;51.556;5.080;2023-03-15T00:52:47;100529.75;;;3.74;100.00
36748;BME280;22716;51.556;5.080;2023-03-15T00:55:18;100525.41;;;3.73;100.00
36748;BME280;22716;51.556;5.080;2023-03-15T00:57:47;100535.75;;;3.73;100.00
36748;BME280;22716;51.556;5.080;2023-03-15T01:00:19;100525.38;;;3.72;100.00
36748;BME280;22716;51.556;5.080;2023-03-15T01:02:50;100534.06;;;3.75;100.00
36748;BME280;22716;51.556;5.080;2023-03-15T01:05:19;100529.78;;;3.77;100.00
36748;BME280;22716;51.556;5.080;2023-03-15T01:07:51;100535.84;;;3.78;100.00
36748;BME280;22716;51.556;5.080;2023-03-15T01:10:20;100533.25;;;3.79;100.00
36748;BME280;22716;51.556;5.080;2023-03-15T01:12:49;100538.47;;;3.81;100.00
36748;BME280;22716;51.556;5.080;2023-03-15T01:15:18;100531.53;;;3.80;100.00
36748;BME280;22716;51.556;5.080;2023-03-15T01:17:46;100545.41;;;3.85;100.00
36748;BME280;22716;51.556;5.080;2023-03-15T01:20:15;100554.97;;;3.87;100.00
36748;BME280;22716;51.556;5.080;2023-03-15T01:22:44;100544.53;;;3.81;100.00
36748;BME280;22716;51.556;5.080;2023-03-15T01:25:15;100548.78;;;3.78;100.00
36748;BME280;22716;51.556;5.080;2023-03-15T01:27:44;100548.81;;;3.81;100.00
36748;BME280;22716;51.556;5.080;2023-03-15T01:30:13;100560.94;;;3.85;100.00
36748;BME280;22716;51.556;5.080;2023-03-15T01:32:42;100560.16;;;3.89;100.00
36748;BME280;22716;51.556;5.080;2023-03-15T01:35:11;100563.63;;;3.91;100.00
36748;BME280;22716;51.556;5.080;2023-03-15T01:37:39;100558.50;;;3.95;100.00
36748;BME280;22716;51.556;5.080;2023-03-15T01:40:11;100565.38;;;3.92;100.00
36748;BME280;22716;51.556;5.080;2023-03-15T01:46:17;100561.78;;;3.82;100.00
36748;BME280;22716;51.556;5.080;2023-03-15T01:48:53;100570.44;;;3.83;100.00
36748;BME280;22716;51.556;5.080;2023-03-15T01:51:27;100567.84;;;3.81;100.00
36748;BME280;22716;51.556;5.080;2023-03-15T01:54:03;100593.75;;;3.83;100.00
36748;BME280;22716;51.556;5.080;2023-03-15T01:56:35;100585.88;;;3.72;100.00
36748;BME280;22716;51.556;5.080;2023-03-15T01:59:12;100594.47;;;3.73;100.00
36748;BME280;22716;51.556;5.080;2023-03-15T02:01:43;100603.16;;;3.75;100.00
36748;BME280;22716;51.556;5.080;2023-03-15T02:04:15;100590.09;;;3.66;100.00
36748;BME280;22716;51.556;5.080;2023-03-15T02:06:45;100594.38;;;3.64;100.00
36748;BME280;22716;51.556;5.080;2023-03-15T02:09:16;100593.50;;;3.65;100.00
36748;BME280;22716;51.556;5.080;2023-03-15T02:11:46;100603.00;;;3.64;100.00
36748;BME280;22716;51.556;5.080;2023-03-15T02:14:18;100600.41;;;3.64;100.00
36748;BME280;22716;51.556;5.080;2023-03-15T02:16:47;100599.66;;;3.70;100.00
36748;BME280;22716;51.556;5.080;2023-03-15T02:19:27;100598.78;;;3.71;100.00
36748;BME280;22716;51.556;5.080;2023-03-15T02:22:03;100596.09;;;3.63;100.00
36748;BME280;22716;51.556;5.080;2023-03-15T02:24:42;100606.56;;;3.71;100.00
36748;BME280;22716;51.556;5.080;2023-03-15T02:27:22;100604.75;;;3.64;100.00
36748;BME280;22716;51.556;5.080;2023-03-15T02:29:51;100601.19;;;3.57;100.00
36748;BME280;22716;51.556;5.080;2023-03-15T02:32:20;100602.13;;;3.62;100.00
36748;BME280;22716;51.556;5.080;2023-03-15T02:34:49;100604.72;;;3.62;100.00
36748;BME280;22716;51.556;5.080;2023-03-15T02:37:17;100605.56;;;3.61;100.00
36748;BME280;22716;51.556;5.080;2023-03-15T02:39:46;100602.06;;;3.59;100.00
36748;BME280;22716;51.556;5.080;2023-03-15T02:42:16;100604.59;;;3.53;100.00
36748;BME280;22716;51.556;5.080;2023-03-15T02:44:48;100598.34;;;3.39;100.00
36748;BME280;22716;51.556;5.080;2023-03-15T02:47:21;100620.94;;;3.51;100.00
36748;BME280;22716;51.556;5.080;2023-03-15T02:49:51;100620.94;;;3.49;100.00
36748;BME280;22716;51.556;5.080;2023-03-15T02:52:21;100621.75;;;3.47;100.00
36748;BME280;22716;51.556;5.080;2023-03-15T02:54:51;100624.34;;;3.47;100.00
36748;BME280;22716;51.556;5.080;2023-03-15T02:57:19;100622.63;;;3.47;100.00
36748;BME280;22716;51.556;5.080;2023-03-15T02:59:51;100633.81;;;3.45;100.00
36748;BME280;22716;51.556;5.080;2023-03-15T03:02:24;100644.13;;;3.42;100.00
36748;BME280;22716;51.556;5.080;2023-03-15T03:04:52;100654.44;;;3.38;100.00
36748;BME280;22716;51.556;5.080;2023-03-15T03:07:21;100606.59;;;3.15;100.00
36748;BME280;22716;51.556;5.080;2023-03-15T03:09:50;100652.72;;;3.40;100.00
36748;BME280;22716;51.556;5.080;2023-03-15T03:12:18;100664.78;;;3.38;100.00
36748;BME280;22716;51.556;5.080;2023-03-15T03:14:50;100670.81;;;3.36;100.00
36748;BME280;22716;51.556;5.080;2023-03-15T03:17:19;100669.00;;;3.32;100.00
36748;BME280;22716;51.556;5.080;2023-03-15T03:19:47;100668.13;;;3.30;100.00
36748;BME280;22716;51.556;5.080;2023-03-15T03:22:16;100674.13;;;3.29;100.00
36748;BME280;22716;51.556;5.080;2023-03-15T03:24:49;100673.13;;;3.21;100.00
36748;BME280;22716;51.556;5.080;2023-03-15T03:27:18;100686.06;;;3.19;100.00
36748;BME280;22716;51.556;5.080;2023-03-15T03:29:50;100687.84;;;3.22;100.00
36748;BME280;22716;51.556;5.080;2023-03-15T03:32:19;100688.56;;;3.15;100.00
36748;BME280;22716;51.556;5.080;2023-03-15T03:34:47;100696.28;;;3.10;100.00
36748;BME280;22716;51.556;5.080;2023-03-15T03:37:16;100694.50;;;3.08;100.00
36748;BME280;22716;51.556;5.080;2023-03-15T03:39:45;100697.94;;;3.08;100.00
36748;BME280;22716;51.556;5.080;2023-03-15T03:42:14;100691.81;;;3.02;100.00
36748;BME280;22716;51.556;5.080;2023-03-15T03:44:42;100696.16;;;3.04;100.00
36748;BME280;22716;51.556;5.080;2023-03-15T03:47:14;100691.00;;;3.06;100.00
36748;BME280;22716;51.556;5.080;2023-03-15T03:49:43;100677.09;;;2.99;100.00
36748;BME280;22716;51.556;5.080;2023-03-15T03:52:11;100704.81;;;3.06;100.00
36748;BME280;22716;51.556;5.080;2023-03-15T03:54:40;100703.00;;;2.99;100.00
36748;BME280;22716;51.556;5.080;2023-03-15T03:57:10;100713.28;;;2.98;100.00
36748;BME280;22716;51.556;5.080;2023-03-15T03:59:39;100715.88;;;2.96;100.00
36748;BME280;22716;51.556;5.080;2023-03-15T04:02:07;100708.91;;;2.94;100.00
36748;BME280;22716;51.556;5.080;2023-03-15T04:04:39;100721.94;;;2.98;100.00
36748;BME280;22716;51.556;5.080;2023-03-15T04:07:08;100726.25;;;2.98;100.00
36748;BME280;22716;51.556;5.080;2023-03-15T04:09:37;100732.22;;;2.95;100.00
36748;BME280;22716;51.556;5.080;2023-03-15T04:12:07;100739.06;;;2.92;100.00
36748;BME280;22716;51.556;5.080;2023-03-15T04:14:36;100747.72;;;2.94;100.00
36748;BME280;22716;51.556;5.080;2023-03-15T04:17:04;100746.94;;;2.96;100.00
36748;BME280;22716;51.556;5.080;2023-03-15T04:19:35;100741.59;;;2.89;100.00
36748;BME280;22716;51.556;5.080;2023-03-15T04:22:07;100752.06;;;2.95;100.00
36748;BME280;22716;51.556;5.080;2023-03-15T04:24:40;100758.88;;;2.90;100.00
36748;BME280;22716;51.556;5.080;2023-03-15T04:27:09;100752.75;;;2.85;100.00
36748;BME280;22716;51.556;5.080;2023-03-15T04:29:39;100756.06;;;2.79;100.00
36748;BME280;22716;51.556;5.080;2023-03-15T04:32:10;100768.16;;;2.78;100.00
36748;BME280;22716;51.556;5.080;2023-03-15T04:34:42;100772.50;;;2.81;100.00
36748;BME280;22716;51.556;5.080;2023-03-15T04:37:18;100770.81;;;2.81;100.00
36748;BME280;22716;51.556;5.080;2023-03-15T04:39:47;100772.41;;;2.76;100.00
36748;BME280;22716;51.556;5.080;2023-03-15T04:42:17;100785.38;;;2.78;100.00
36748;BME280;22716;51.556;5.080;2023-03-15T04:44:45;100778.47;;;2.77;100.00
36748;BME280;22716;51.556;5.080;2023-03-15T04:47:14;100780.16;;;2.76;100.00
36748;BME280;22716;51.556;5.080;2023-03-15T04:49:43;100782.75;;;2.76;100.00
36748;BME280;22716;51.556;5.080;2023-03-15T04:52:11;100767.09;;;2.70;100.00
36748;BME280;22716;51.556;5.080;2023-03-15T04:54:43;100781.88;;;2.76;100.00
36748;BME280;22716;51.556;5.080;2023-03-15T04:57:11;100777.56;;;2.75;100.00
36748;BME280;22716;51.556;5.080;2023-03-15T04:59:40;100794.03;;;2.80;100.00
36748;BME280;22716;51.556;5.080;2023-03-15T05:02:09;100795.81;;;2.82;100.00
36748;BME280;22716;51.556;5.080;2023-03-15T05:04:37;100802.75;;;2.83;100.00
36748;BME280;22716;51.556;5.080;2023-03-15T05:07:07;100791.44;;;2.78;100.00
36748;BME280;22716;51.556;5.080;2023-03-15T05:09:35;100786.09;;;2.71;100.00
36748;BME280;22716;51.556;5.080;2023-03-15T05:12:09;100807.03;;;2.81;100.00
36748;BME280;22716;51.556;5.080;2023-03-15T05:14:38;100804.38;;;2.80;100.00
36748;BME280;22716;51.556;5.080;2023-03-15T05:17:07;100804.31;;;2.75;100.00
36748;BME280;22716;51.556;5.080;2023-03-15T05:19:35;100798.97;;;2.68;100.00
36748;BME280;22716;51.556;5.080;2023-03-15T05:22:04;100813.66;;;2.70;100.00
36748;BME280;22716;51.556;5.080;2023-03-15T05:24:33;100818.81;;;2.69;100.00
36748;BME280;22716;51.556;5.080;2023-03-15T05:27:02;100806.66;;;2.65;100.00
36748;BME280;22716;51.556;5.080;2023-03-15T05:29:34;100818.84;;;2.70;100.00
36748;BME280;22716;51.556;5.080;2023-03-15T05:32:04;100823.94;;;2.67;100.00
36748;BME280;22716;51.556;5.080;2023-03-15T05:34:33;100819.56;;;2.63;100.00
36748;BME280;22716;51.556;5.080;2023-03-15T05:37:02;100817.06;;;2.66;100.00
36748;BME280;22716;51.556;5.080;2023-03-15T05:39:30;100807.31;;;2.55;100.00
36748;BME280;22716;51.556;5.080;2023-03-15T05:42:00;100820.47;;;2.65;100.00
36748;BME280;22716;51.556;5.080;2023-03-15T05:44:29;100827.28;;;2.60;100.00
36748;BME280;22716;51.556;5.080;2023-03-15T05:47:00;100821.19;;;2.58;100.00
36748;BME280;22716;51.556;5.080;2023-03-15T05:49:29;100834.91;;;2.54;100.00
36748;BME280;22716;51.556;5.080;2023-03-15T05:51:58;100852.13;;;2.54;100.00
36748;BME280;22716;51.556;5.080;2023-03-15T05:54:26;100852.81;;;2.47;100.00
36748;BME280;22716;51.556;5.080;2023-03-15T05:56:55;100855.41;;;2.47;100.00
36748;BME280;22716;51.556;5.080;2023-03-15T05:59:24;100856.28;;;2.47;100.00
36748;BME280;22716;51.556;5.080;2023-03-15T06:01:52;100860.69;;;2.51;100.00
36748;BME280;22716;51.556;5.080;2023-03-15T06:04:24;100856.41;;;2.53;100.00
36748;BME280;22716;51.556;5.080;2023-03-15T06:06:52;100869.56;;;2.62;100.00
36748;BME280;22716;51.556;5.080;2023-03-15T06:09:21;100878.22;;;2.64;100.00
36748;BME280;22716;51.556;5.080;2023-03-15T06:11:50;100879.88;;;2.61;100.00
36748;BME280;22716;51.556;5.080;2023-03-15T06:14:19;100881.41;;;2.53;100.00
36748;BME280;22716;51.556;5.080;2023-03-15T06:16:47;100879.59;;;2.49;100.00
36748;BME280;22716;51.556;5.080;2023-03-15T06:19:16;100895.25;;;2.55;100.00
36748;BME280;22716;51.556;5.080;2023-03-15T06:21:48;100904.81;;;2.57;100.00
36748;BME280;22716;51.556;5.080;2023-03-15T06:24:17;100905.69;;;2.59;100.00
36748;BME280;22716;51.556;5.080;2023-03-15T06:26:46;100923.06;;;2.65;100.00
36748;BME280;22716;51.556;5.080;2023-03-15T06:29:14;100901.34;;;2.57;100.00
36748;BME280;22716;51.556;5.080;2023-03-15T06:31:44;100913.53;;;2.62;100.00
36748;BME280;22716;51.556;5.080;2023-03-15T06:34:14;100925.00;;;2.73;100.00
36748;BME280;22716;51.556;5.080;2023-03-15T06:36:43;100927.63;;;2.75;100.00
36748;BME280;22716;51.556;5.080;2023-03-15T06:39:14;100929.50;;;2.82;100.00
36748;BME280;22716;51.556;5.080;2023-03-15T06:41:43;100934.91;;;2.93;100.00
36748;BME280;22716;51.556;5.080;2023-03-15T06:44:12;100931.47;;;2.94;100.00
36748;BME280;22716;51.556;5.080;2023-03-15T06:46:41;100931.47;;;2.94;100.00
36748;BME280;22716;51.556;5.080;2023-03-15T06:49:09;100945.41;;;2.99;100.00
36748;BME280;22716;51.556;5.080;2023-03-15T06:51:38;100942.00;;;3.01;100.00
36748;BME280;22716;51.556;5.080;2023-03-15T06:54:09;100954.19;;;3.05;100.00
36748;BME280;22716;51.556;5.080;2023-03-15T06:56:41;100950.66;;;3.03;100.00
36748;BME280;22716;51.556;5.080;2023-03-15T06:59:10;100954.13;;;3.04;100.00
36748;BME280;22716;51.556;5.080;2023-03-15T07:01:39;100962.19;;;3.17;100.00
36748;BME280;22716;51.556;5.080;2023-03-15T07:04:08;100967.63;;;3.29;100.00
36748;BME280;22716;51.556;5.080;2023-03-15T07:06:36;100959.16;;;3.36;100.00
36748;BME280;22716;51.556;5.080;2023-03-15T07:09:05;100965.41;;;3.46;100.00
36748;BME280;22716;51.556;5.080;2023-03-15T07:11:34;100973.38;;;3.57;100.00
36748;BME280;22716;51.556;5.080;2023-03-15T07:14:05;100973.63;;;3.69;100.00
36748;BME280;22716;51.556;5.080;2023-03-15T07:16:34;100973.16;;;3.89;100.00
36748;BME280;22716;51.556;5.080;2023-03-15T07:19:03;100971.44;;;3.90;100.00
36748;BME280;22716;51.556;5.080;2023-03-15T07:21:31;100989.81;;;4.02;100.00
36748;BME280;22716;51.556;5.080;2023-03-15T07:24:00;100989.09;;;4.11;100.00
36748;BME280;22716;51.556;5.080;2023-03-15T07:26:29;100980.44;;;4.12;100.00
36748;BME280;22716;51.556;5.080;2023-03-15T07:28:58;100999.88;;;4.35;100.00
36748;BME280;22716;51.556;5.080;2023-03-15T07:31:29;101008.78;;;4.49;100.00
36748;BME280;22716;51.556;5.080;2023-03-15T07:33:58;101007.09;;;4.51;100.00
36748;BME280;22716;51.556;5.080;2023-03-15T07:36:26;101009.84;;;4.60;100.00
36748;BME280;22716;51.556;5.080;2023-03-15T07:38:56;101017.78;;;4.69;100.00
36748;BME280;22716;51.556;5.080;2023-03-15T07:41:26;101016.16;;;4.77;100.00
36748;BME280;22716;51.556;5.080;2023-03-15T07:43:55;101021.25;;;4.73;100.00
36748;BME280;22716;51.556;5.080;2023-03-15T07:46:24;101029.25;;;4.85;100.00
36748;BME280;22716;51.556;5.080;2023-03-15T07:48:56;101034.59;;;4.94;100.00
36748;BME280;22716;51.556;5.080;2023-03-15T07:51:25;101038.91;;;4.93;100.00
36748;BME280;22716;51.556;5.080;2023-03-15T07:53:53;101044.28;;;5.04;100.00
36748;BME280;22716;51.556;5.080;2023-03-15T07:56:22;101049.75;;;5.24;100.00
36748;BME280;22716;51.556;5.080;2023-03-15T07:58:51;101049.06;;;5.35;100.00
36748;BME280;22716;51.556;5.080;2023-03-15T08:01:20;101052.56;;;5.39;100.00
36748;BME280;22716;51.556;5.080;2023-03-15T08:03:49;101066.47;;;5.42;100.00
36748;BME280;22716;51.556;5.080;2023-03-15T08:06:20;101083.97;;;5.54;100.00
36748;BME280;22716;51.556;5.080;2023-03-15T08:08:49;101077.84;;;5.52;100.00
36748;BME280;22716;51.556;5.080;2023-03-15T08:11:17;101083.09;;;5.55;100.00
36748;BME280;22716;51.556;5.080;2023-03-15T08:13:46;101082.00;;;5.38;100.00
36748;BME280;22716;51.556;5.080;2023-03-15T08:16:15;101089.22;;;5.58;100.00
36748;BME280;22716;51.556;5.080;2023-03-15T08:18:44;101085.78;;;5.61;100.00
36748;BME280;22716;51.556;5.080;2023-03-15T08:21:12;101087.47;;;5.56;100.00
36748;BME280;22716;51.556;5.080;2023-03-15T08:23:44;101087.22;;;5.39;100.00
36748;BME280;22716;51.556;5.080;2023-03-15T08:26:13;101098.41;;;5.34;100.00
36748;BME280;22716;51.556;5.080;2023-03-15T08:28:41;101102.00;;;5.42;100.00
36748;BME280;22716;51.556;5.080;2023-03-15T08:31:10;101101.16;;;5.44;100.00
36748;BME280;22716;51.556;5.080;2023-03-15T08:33:39;101099.44;;;5.45;100.00
36748;BME280;22716;51.556;5.080;2023-03-15T08:36:08;101096.78;;;5.42;100.00
36748;BME280;22716;51.556;5.080;2023-03-15T08:38:37;101096.78;;;5.42;100.00
36748;BME280;22716;51.556;5.080;2023-03-15T08:41:09;101096.88;;;5.49;100.00
36748;BME280;22716;51.556;5.080;2023-03-15T08:43:38;101113.56;;;5.63;100.00
36748;BME280;22716;51.556;5.080;2023-03-15T08:46:06;101117.19;;;5.76;100.00
36748;BME280;22716;51.556;5.080;2023-03-15T08:48:35;101124.19;;;5.80;100.00
36748;BME280;22716;51.556;5.080;2023-03-15T08:51:06;101119.03;;;5.83;100.00
36748;BME280;22716;51.556;5.080;2023-03-15T08:53:35;101117.28;;;5.82;100.00
36748;BME280;22716;51.556;5.080;2023-03-15T08:56:04;101119.75;;;5.73;100.00
36748;BME280;22716;51.556;5.080;2023-03-15T08:58:36;101119.94;;;5.85;100.00
36748;BME280;22716;51.556;5.080;2023-03-15T09:01:06;101133.06;;;5.93;100.00
36748;BME280;22716;51.556;5.080;2023-03-15T09:03:34;101131.38;;;5.98;100.00
36748;BME280;22716;51.556;5.080;2023-03-15T09:06:04;101142.75;;;6.06;100.00
36748;BME280;22716;51.556;5.080;2023-03-15T09:08:33;101139.38;;;6.14;100.00
36748;BME280;22716;51.556;5.080;2023-03-15T09:11:01;101130.66;;;6.09;100.00
36748;BME280;22716;51.556;5.080;2023-03-15T09:13:30;101142.19;;;6.28;100.00
36748;BME280;22716;51.556;5.080;2023-03-15T09:16:02;101143.09;;;6.35;100.00
36748;BME280;22716;51.556;5.080;2023-03-15T09:18:30;101133.63;;;6.41;100.00
36748;BME280;22716;51.556;5.080;2023-03-15T09:20:59;101137.22;;;6.52;100.00
36748;BME280;22716;51.556;5.080;2023-03-15T09:23:28;101128.56;;;6.55;100.00
36748;BME280;22716;51.556;5.080;2023-03-15T09:25:57;101131.22;;;6.59;100.00
36748;BME280;22716;51.556;5.080;2023-03-15T09:28:26;101141.66;;;6.61;100.00
36748;BME280;22716;51.556;5.080;2023-03-15T09:30:55;101134.75;;;6.64;100.00
36748;BME280;22716;51.556;5.080;2023-03-15T09:33:26;101135.72;;;6.74;100.00
36748;BME280;22716;51.556;5.080;2023-03-15T09:35:58;101134.00;;;6.74;100.00
36748;BME280;22716;51.556;5.080;2023-03-15T09:38:26;101140.09;;;6.80;100.00
36748;BME280;22716;51.556;5.080;2023-03-15T09:40:56;101134.06;;;6.81;100.00
36748;BME280;22716;51.556;5.080;2023-03-15T09:43:41;101138.47;;;6.89;100.00
36748;BME280;22716;51.556;5.080;2023-03-15T09:46:24;101142.81;;;6.90;100.00
36748;BME280;22716;51.556;5.080;2023-03-15T09:49:00;101148.84;;;6.83;100.00
36748;BME280;22716;51.556;5.080;2023-03-15T09:51:38;101144.34;;;6.68;100.00
36748;BME280;22716;51.556;5.080;2023-03-15T09:54:15;101150.38;;;6.63;100.00
36748;BME280;22716;51.556;5.080;2023-03-15T09:56:49;101154.94;;;6.88;100.00
36748;BME280;22716;51.556;5.080;2023-03-15T09:59:22;101149.06;;;7.07;100.00
36748;BME280;22716;51.556;5.080;2023-03-15T10:01:54;101149.03;;;7.06;100.00
36748;BME280;22716;51.556;5.080;2023-03-15T10:04:29;101150.81;;;7.11;100.00
36748;BME280;22716;51.556;5.080;2023-03-15T10:07:01;101146.47;;;7.10;99.58
36748;BME280;22716;51.556;5.080;2023-03-15T10:09:31;101150.88;;;7.17;98.59
36748;BME280;22716;51.556;5.080;2023-03-15T10:12:03;101146.56;;;7.22;97.96
36748;BME280;22716;51.556;5.080;2023-03-15T10:17:40;101156.16;;;7.28;97.73
36748;BME280;22716;51.556;5.080;2023-03-15T10:20:18;101150.19;;;7.40;97.71
36748;BME280;22716;51.556;5.080;2023-03-15T10:22:57;101157.19;;;7.47;97.06
36748;BME280;22716;51.556;5.080;2023-03-15T10:25:28;101148.47;;;7.45;96.95
36748;BME280;22716;51.556;5.080;2023-03-15T10:28:00;101159.97;;;7.75;96.02
36748;BME280;22716;51.556;5.080;2023-03-15T10:30:30;101160.84;;;7.74;95.18
36748;BME280;22716;51.556;5.080;2023-03-15T10:33:02;101171.25;;;7.71;94.66
36748;BME280;22716;51.556;5.080;2023-03-15T10:35:35;101171.19;;;7.64;93.64
36748;BME280;22716;51.556;5.080;2023-03-15T10:38:13;101165.97;;;7.61;92.47
36748;BME280;22716;51.556;5.080;2023-03-15T10:40:44;101179.94;;;7.70;91.91
36748;BME280;22716;51.556;5.080;2023-03-15T10:43:19;101178.13;;;7.57;91.13
36748;BME280;22716;51.556;5.080;2023-03-15T10:45:59;101175.50;;;7.60;91.30
36748;BME280;22716;51.556;5.080;2023-03-15T10:48:30;101178.13;;;7.63;90.89
36748;BME280;22716;51.556;5.080;2023-03-15T10:51:04;101180.75;;;7.62;89.29
36748;BME280;22716;51.556;5.080;2023-03-15T10:53:34;101188.56;;;7.63;88.59
36748;BME280;22716;51.556;5.080;2023-03-15T10:56:06;101192.97;;;7.66;87.58
36748;BME280;22716;51.556;5.080;2023-03-15T10:58:40;101187.78;;;7.69;87.07
36748;BME280;22716;51.556;5.080;2023-03-15T11:01:13;101198.25;;;7.81;86.03
36748;BME280;22716;51.556;5.080;2023-03-15T11:04:01;101179.97;;;7.72;85.73
36748;BME280;22716;51.556;5.080;2023-03-15T11:06:40;101193.09;;;7.85;84.82
36748;BME280;22716;51.556;5.080;2023-03-15T11:09:12;101190.47;;;7.85;83.94
36748;BME280;22716;51.556;5.080;2023-03-15T11:11:54;101210.53;;;7.97;83.45
36748;BME280;22716;51.556;5.080;2023-03-15T11:14:25;101217.47;;;7.94;82.74
36748;BME280;22716;51.556;5.080;2023-03-15T11:16:57;101210.56;;;8.00;81.66
36748;BME280;22716;51.556;5.080;2023-03-15T11:19:28;101227.16;;;8.11;81.55
36748;BME280;22716;51.556;5.080;2023-03-15T11:22:01;101224.53;;;8.08;81.18
36748;BME280;22716;51.556;5.080;2023-03-15T11:24:32;101230.66;;;8.15;81.25
36748;BME280;22716;51.556;5.080;2023-03-15T11:27:03;101229.84;;;8.26;80.94
36748;BME280;22716;51.556;5.080;2023-03-15T11:29:40;101232.53;;;8.35;81.37
36748;BME280;22716;51.556;5.080;2023-03-15T11:32:13;101231.72;;;8.52;81.47
36748;BME280;22716;51.556;5.080;2023-03-15T11:34:45;101223.94;;;8.62;81.27
36748;BME280;22716;51.556;5.080;2023-03-15T11:37:21;101221.38;;;8.76;81.94
36748;BME280;22716;51.556;5.080;2023-03-15T11:39:56;101221.41;;;8.92;80.94
36748;BME280;22716;51.556;5.080;2023-03-15T11:42:31;101218.84;;;9.09;79.75
36748;BME280;22716;51.556;5.080;2023-03-15T11:45:03;101213.63;;;9.24;78.56
36748;BME280;22716;51.556;5.080;2023-03-15T11:47:40;101209.28;;;9.26;77.35
36748;BME280;22716;51.556;5.080;2023-03-15T11:50:13;101213.66;;;9.33;75.73
36748;BME280;22716;51.556;5.080;2023-03-15T11:52:47;101210.16;;;9.33;74.89
36748;BME280;22716;51.556;5.080;2023-03-15T11:55:18;101193.59;;;9.35;73.95
36748;BME280;22716;51.556;5.080;2023-03-15T11:57:48;101202.28;;;9.52;72.81
36748;BME280;22716;51.556;5.080;2023-03-15T12:00:49;101198.81;;;9.66;72.91
36748;BME280;22716;51.556;5.080;2023-03-15T12:03:35;101195.31;;;9.80;72.92
36748;BME280;22716;51.556;5.080;2023-03-15T12:09:02;101203.09;;;9.92;70.27
36748;BME280;22716;51.556;5.080;2023-03-15T12:11:49;101197.84;;;10.01;69.32
36748;BME280;22716;51.556;5.080;2023-03-15T12:14:36;101206.56;;;10.05;67.25
36748;BME280;22716;51.556;5.080;2023-03-15T12:20:16;101201.31;;;10.25;65.58
36748;BME280;22716;51.556;5.080;2023-03-15T12:22:49;101187.34;;;10.30;64.86
36748;BME280;22716;51.556;5.080;2023-03-15T12:25:28;101202.97;;;10.50;65.52
36748;BME280;22716;51.556;5.080;2023-03-15T12:27:58;101207.31;;;10.52;64.80
36748;BME280;22716;51.556;5.080;2023-03-15T12:30:38;101202.13;;;10.43;64.53
36748;BME280;22716;51.556;5.080;2023-03-15T12:33:13;101196.03;;;10.35;64.31
36748;BME280;22716;51.556;5.080;2023-03-15T12:35:43;101198.66;;;10.28;65.38
36748;BME280;22716;51.556;5.080;2023-03-15T12:38:15;101192.63;;;10.09;65.74
36748;BME280;22716;51.556;5.080;2023-03-15T12:40:53;101198.72;;;10.06;65.59
36748;BME280;22716;51.556;5.080;2023-03-15T12:43:37;101189.16;;;9.98;65.44
36748;BME280;22716;51.556;5.080;2023-03-15T12:49:30;101204.03;;;9.73;64.07
36748;BME280;22716;51.556;5.080;2023-03-15T12:52:02;101204.03;;;9.69;63.47
36748;BME280;22716;51.556;5.080;2023-03-15T12:54:41;101197.06;;;9.74;63.17
36748;BME280;22716;51.556;5.080;2023-03-15T12:57:15;101197.03;;;9.81;63.93
36748;BME280;22716;51.556;5.080;2023-03-15T12:59:49;101194.38;;;10.01;64.44
36748;BME280;22716;51.556;5.080;2023-03-15T13:02:29;101197.84;;;10.09;64.56
36748;BME280;22716;51.556;5.080;2023-03-15T13:05:08;101198.69;;;10.11;63.96
36748;BME280;22716;51.556;5.080;2023-03-15T13:07:51;101194.38;;;10.15;63.66
36748;BME280;22716;51.556;5.080;2023-03-15T13:10:31;101196.97;;;10.13;63.17
36748;BME280;22716;51.556;5.080;2023-03-15T13:13:16;101183.88;;;10.05;62.31
36748;BME280;22716;51.556;5.080;2023-03-15T13:15:59;101191.75;;;10.02;61.06
36748;BME280;22716;51.556;5.080;2023-03-15T13:21:18;101185.69;;;9.88;59.62
36748;BME280;22716;51.556;5.080;2023-03-15T13:23:50;101191.81;;;9.86;59.28
36748;BME280;22716;51.556;5.080;2023-03-15T13:26:30;101181.34;;;9.77;58.38
36748;BME280;22716;51.556;5.080;2023-03-15T13:29:06;101183.06;;;9.75;58.40
36748;BME280;22716;51.556;5.080;2023-03-15T13:31:39;101178.72;;;9.81;58.48